sensor_id;sensor_type;location;lat;lon;timestamp;temperature;humidity
11112;DHT22;5609;49.466;8.468;2024-01-30T00:00:23;4.40;99.90
11112;DHT22;5609;49.466;8.468;2024-01-30T00:02:49;4.40;99.90
11112;DHT22;5609;49.466;8.468;2024-01-30T00:05:17;4.40;99.90
11112;DHT22;5609;49.466;8.468;2024-01-30T00:07:43;4.30;99.90
11112;DHT22;5609;49.466;8.468;2024-01-30T00:10:11;4.30;99.90
11112;DHT22;5609;49.466;8.468;2024-01-30T00:12:38;4.30;99.90
11112;DHT22;5609;49.466;8.468;2024-01-30T00:15:05;4.20;99.90
11112;DHT22;5609;49.466;8.468;2024-01-30T00:17:35;4.20;99.90
11112;DHT22;5609;49.466;8.468;2024-01-30T00:20:01;4.20;99.90
11112;DHT22;5609;49.466;8.468;2024-01-30T00:22:30;4.10;99.90
11112;DHT22;5609;49.466;8.468;2024-01-30T00:24:57;4.10;99.90
11112;DHT22;5609;49.466;8.468;2024-01-30T00:27:26;4.10;99.90
11112;DHT22;5609;49.466;8.468;2024-01-30T00:29:52;4.10;99.90
11112;DHT22;5609;49.466;8.468;2024-01-30T00:32:19;4.10;99.90
11112;DHT22;5609;49.466;8.468;2024-01-30T00:34:46;4.10;99.90
11112;DHT22;5609;49.466;8.468;2024-01-30T00:37:12;4.10;99.90
11112;DHT22;5609;49.466;8.468;2024-01-30T00:39:39;4.10;99.90
11112;DHT22;5609;49.466;8.468;2024-01-30T00:42:05;4.10;99.90
11112;DHT22;5609;49.466;8.468;2024-01-30T00:44:36;4.10;99.90
11112;DHT22;5609;49.466;8.468;2024-01-30T00:47:04;4.10;99.90
11112;DHT22;5609;49.466;8.468;2024-01-30T00:49:30;4.00;99.90
11112;DHT22;5609;49.466;8.468;2024-01-30T00:51:57;4.00;99.90
11112;DHT22;5609;49.466;8.468;2024-01-30T00:54:23;4.00;99.90
11112;DHT22;5609;49.466;8.468;2024-01-30T00:56:50;4.10;99.90
11112;DHT22;5609;49.466;8.468;2024-01-30T00:59:16;4.10;99.90
11112;DHT22;5609;49.466;8.468;2024-01-30T01:01:44;4.10;99.90
11112;DHT22;5609;49.466;8.468;2024-01-30T01:04:11;4.10;99.90
11112;DHT22;5609;49.466;8.468;2024-01-30T01:06:37;4.00;99.90
11112;DHT22;5609;49.466;8.468;2024-01-30T01:09:04;4.00;99.90
11112;DHT22;5609;49.466;8.468;2024-01-30T01:11:30;4.00;99.90
11112;DHT22;5609;49.466;8.468;2024-01-30T01:13:56;4.00;99.90
11112;DHT22;5609;49.466;8.468;2024-01-30T01:16:23;4.00;99.90
11112;DHT22;5609;49.466;8.468;2024-01-30T01:18:51;3.90;99.90
11112;DHT22;5609;49.466;8.468;2024-01-30T01:21:18;3.90;99.90
11112;DHT22;5609;49.466;8.468;2024-01-30T01:23:44;3.80;99.90
11112;DHT22;5609;49.466;8.468;2024-01-30T01:26:11;3.80;99.90
11112;DHT22;5609;49.466;8.468;2024-01-30T01:28:39;3.80;99.90
11112;DHT22;5609;49.466;8.468;2024-01-30T01:31:05;3.80;99.90
11112;DHT22;5609;49.466;8.468;2024-01-30T01:33:32;3.80;99.90
11112;DHT22;5609;49.466;8.468;2024-01-30T01:36:00;3.80;99.90
11112;DHT22;5609;49.466;8.468;2024-01-30T01:38:27;3.80;99.90
11112;DHT22;5609;49.466;8.468;2024-01-30T01:40:54;3.80;99.90
11112;DHT22;5609;49.466;8.468;2024-01-30T01:43:21;3.70;99.90
11112;DHT22;5609;49.466;8.468;2024-01-30T01:45:48;3.80;99.90
11112;DHT22;5609;49.466;8.468;2024-01-30T01:48:15;3.80;99.90
11112;DHT22;5609;49.466;8.468;2024-01-30T01:50:42;3.70;99.90
11112;DHT22;5609;49.466;8.468;2024-01-30T01:53:12;3.70;99.90
11112;DHT22;5609;49.466;8.468;2024-01-30T01:55:39;3.70;99.90
11112;DHT22;5609;49.466;8.468;2024-01-30T01:58:06;3.70;99.90
11112;DHT22;5609;49.466;8.468;2024-01-30T02:00:34;3.60;99.90
11112;DHT22;5609;49.466;8.468;2024-01-30T02:03:06;3.60;99.90
11112;DHT22;5609;49.466;8.468;2024-01-30T02:05:33;3.60;99.90
11112;DHT22;5609;49.466;8.468;2024-01-30T02:08:01;3.60;99.90
11112;DHT22;5609;49.466;8.468;2024-01-30T02:10:30;3.60;99.90
11112;DHT22;5609;49.466;8.468;2024-01-30T02:12:56;3.60;99.90
11112;DHT22;5609;49.466;8.468;2024-01-30T02:15:23;3.60;99.90
11112;DHT22;5609;49.466;8.468;2024-01-30T02:17:50;3.60;99.90
11112;DHT22;5609;49.466;8.468;2024-01-30T02:20:17;3.50;99.90
11112;DHT22;5609;49.466;8.468;2024-01-30T02:22:45;3.50;99.90
11112;DHT22;5609;49.466;8.468;2024-01-30T02:25:12;3.50;99.90
11112;DHT22;5609;49.466;8.468;2024-01-30T02:27:39;3.50;99.90
11112;DHT22;5609;49.466;8.468;2024-01-30T02:30:07;3.50;99.90
11112;DHT22;5609;49.466;8.468;2024-01-30T02:32:34;3.50;99.90
11112;DHT22;5609;49.466;8.468;2024-01-30T02:35:00;3.40;99.90
11112;DHT22;5609;49.466;8.468;2024-01-30T02:37:27;3.40;99.90
11112;DHT22;5609;49.466;8.468;2024-01-30T02:39:55;3.40;99.90
11112;DHT22;5609;49.466;8.468;2024-01-30T02:42:22;3.40;99.90
11112;DHT22;5609;49.466;8.468;2024-01-30T02:44:48;3.40;99.90
11112;DHT22;5609;49.466;8.468;2024-01-30T02:47:15;3.30;99.90
11112;DHT22;5609;49.466;8.468;2024-01-30T02:49:41;3.40;99.90
11112;DHT22;5609;49.466;8.468;2024-01-30T02:52:08;3.30;99.90
11112;DHT22;5609;49.466;8.468;2024-01-30T02:54:35;3.30;99.90
11112;DHT22;5609;49.466;8.468;2024-01-30T02:57:03;3.30;99.90
11112;DHT22;5609;49.466;8.468;2024-01-30T02:59:30;3.40;99.90
11112;DHT22;5609;49.466;8.468;2024-01-30T03:01:58;3.30;99.90
11112;DHT22;5609;49.466;8.468;2024-01-30T03:04:25;3.40;99.90
11112;DHT22;5609;49.466;8.468;2024-01-30T03:06:52;3.30;99.90
11112;DHT22;5609;49.466;8.468;2024-01-30T03:09:19;3.30;99.90
11112;DHT22;5609;49.466;8.468;2024-01-30T03:11:46;3.30;99.90
11112;DHT22;5609;49.466;8.468;2024-01-30T03:14:14;3.30;99.90
11112;DHT22;5609;49.466;8.468;2024-01-30T03:16:40;3.20;99.90
11112;DHT22;5609;49.466;8.468;2024-01-30T03:19:07;3.20;99.90
11112;DHT22;5609;49.466;8.468;2024-01-30T03:21:35;3.10;99.90
11112;DHT22;5609;49.466;8.468;2024-01-30T03:24:02;3.10;99.90
11112;DHT22;5609;49.466;8.468;2024-01-30T03:26:28;3.10;99.90
11112;DHT22;5609;49.466;8.468;2024-01-30T03:28:55;3.00;99.90
11112;DHT22;5609;49.466;8.468;2024-01-30T03:31:25;3.00;99.90
11112;DHT22;5609;49.466;8.468;2024-01-30T03:33:52;3.00;99.90
11112;DHT22;5609;49.466;8.468;2024-01-30T03:36:19;3.00;99.90
11112;DHT22;5609;49.466;8.468;2024-01-30T03:38:46;3.10;99.90
11112;DHT22;5609;49.466;8.468;2024-01-30T03:41:13;3.10;99.90
11112;DHT22;5609;49.466;8.468;2024-01-30T03:43:42;3.10;99.90
11112;DHT22;5609;49.466;8.468;2024-01-30T03:46:12;3.10;99.90
11112;DHT22;5609;49.466;8.468;2024-01-30T03:48:40;3.10;99.90
11112;DHT22;5609;49.466;8.468;2024-01-30T03:51:06;3.00;99.90
11112;DHT22;5609;49.466;8.468;2024-01-30T03:53:33;3.20;99.90
11112;DHT22;5609;49.466;8.468;2024-01-30T03:56:00;3.20;99.90
11112;DHT22;5609;49.466;8.468;2024-01-30T03:58:28;3.20;99.90
11112;DHT22;5609;49.466;8.468;2024-01-30T04:00:55;3.20;99.90
11112;DHT22;5609;49.466;8.468;2024-01-30T04:03:21;3.20;99.90
11112;DHT22;5609;49.466;8.468;2024-01-30T04:05:50;3.30;99.90
11112;DHT22;5609;49.466;8.468;2024-01-30T04:08:17;3.30;99.90
11112;DHT22;5609;49.466;8.468;2024-01-30T04:10:44;3.30;99.90
11112;DHT22;5609;49.466;8.468;2024-01-30T04:13:11;3.30;99.90
11112;DHT22;5609;49.466;8.468;2024-01-30T04:15:37;3.30;99.90
11112;DHT22;5609;49.466;8.468;2024-01-30T04:18:04;3.20;99.90
11112;DHT22;5609;49.466;8.468;2024-01-30T04:20:31;3.20;99.90
11112;DHT22;5609;49.466;8.468;2024-01-30T04:23:00;3.20;99.90
11112;DHT22;5609;49.466;8.468;2024-01-30T04:25:27;3.10;99.90
11112;DHT22;5609;49.466;8.468;2024-01-30T04:27:54;3.10;99.90
11112;DHT22;5609;49.466;8.468;2024-01-30T04:30:21;3.10;99.90
11112;DHT22;5609;49.466;8.468;2024-01-30T04:32:48;3.10;99.90
11112;DHT22;5609;49.466;8.468;2024-01-30T04:35:14;3.00;99.90
11112;DHT22;5609;49.466;8.468;2024-01-30T04:37:41;3.10;99.90
11112;DHT22;5609;49.466;8.468;2024-01-30T04:40:12;3.10;99.90
11112;DHT22;5609;49.466;8.468;2024-01-30T04:42:40;3.20;99.90
11112;DHT22;5609;49.466;8.468;2024-01-30T04:45:07;3.20;99.90
11112;DHT22;5609;49.466;8.468;2024-01-30T04:47:34;3.20;99.90
11112;DHT22;5609;49.466;8.468;2024-01-30T04:50:01;3.20;99.90
11112;DHT22;5609;49.466;8.468;2024-01-30T04:52:30;3.10;99.90
11112;DHT22;5609;49.466;8.468;2024-01-30T04:54:58;3.10;99.90
11112;DHT22;5609;49.466;8.468;2024-01-30T04:57:26;3.10;99.90
11112;DHT22;5609;49.466;8.468;2024-01-30T05:00:00;3.10;99.90
11112;DHT22;5609;49.466;8.468;2024-01-30T05:02:27;3.00;99.90
11112;DHT22;5609;49.466;8.468;2024-01-30T05:04:54;3.00;99.90
11112;DHT22;5609;49.466;8.468;2024-01-30T05:07:21;2.90;99.90
11112;DHT22;5609;49.466;8.468;2024-01-30T05:09:50;3.00;99.90
11112;DHT22;5609;49.466;8.468;2024-01-30T05:12:16;3.00;99.90
11112;DHT22;5609;49.466;8.468;2024-01-30T05:14:45;3.00;99.90
11112;DHT22;5609;49.466;8.468;2024-01-30T05:17:13;3.10;99.90
11112;DHT22;5609;49.466;8.468;2024-01-30T05:19:42;3.00;99.90
11112;DHT22;5609;49.466;8.468;2024-01-30T05:22:09;3.10;99.90
11112;DHT22;5609;49.466;8.468;2024-01-30T05:24:36;3.10;99.90
11112;DHT22;5609;49.466;8.468;2024-01-30T05:27:03;3.10;99.90
11112;DHT22;5609;49.466;8.468;2024-01-30T05:29:30;3.20;99.90
11112;DHT22;5609;49.466;8.468;2024-01-30T05:31:58;3.20;99.90
11112;DHT22;5609;49.466;8.468;2024-01-30T05:34:25;3.20;99.90
11112;DHT22;5609;49.466;8.468;2024-01-30T05:36:51;3.20;99.90
11112;DHT22;5609;49.466;8.468;2024-01-30T05:39:18;3.20;99.90
11112;DHT22;5609;49.466;8.468;2024-01-30T05:41:45;3.20;99.90
11112;DHT22;5609;49.466;8.468;2024-01-30T05:44:13;3.20;99.90
11112;DHT22;5609;49.466;8.468;2024-01-30T05:46:40;3.20;99.90
11112;DHT22;5609;49.466;8.468;2024-01-30T05:49:08;3.20;99.90
11112;DHT22;5609;49.466;8.468;2024-01-30T05:51:34;3.20;99.90
11112;DHT22;5609;49.466;8.468;2024-01-30T05:54:01;3.20;99.90
11112;DHT22;5609;49.466;8.468;2024-01-30T05:56:29;3.20;99.90
11112;DHT22;5609;49.466;8.468;2024-01-30T05:58:57;3.20;99.90
11112;DHT22;5609;49.466;8.468;2024-01-30T06:01:24;3.30;99.90
11112;DHT22;5609;49.466;8.468;2024-01-30T06:03:51;3.30;99.90
11112;DHT22;5609;49.466;8.468;2024-01-30T06:06:19;3.30;99.90
11112;DHT22;5609;49.466;8.468;2024-01-30T06:08:45;3.30;99.90
11112;DHT22;5609;49.466;8.468;2024-01-30T06:11:12;3.30;99.90
11112;DHT22;5609;49.466;8.468;2024-01-30T06:13:38;3.30;99.90
11112;DHT22;5609;49.466;8.468;2024-01-30T06:16:09;3.30;99.90
11112;DHT22;5609;49.466;8.468;2024-01-30T06:18:36;3.30;99.90
11112;DHT22;5609;49.466;8.468;2024-01-30T06:21:04;3.30;99.90
11112;DHT22;5609;49.466;8.468;2024-01-30T06:23:32;3.30;99.90
11112;DHT22;5609;49.466;8.468;2024-01-30T06:26:00;3.30;99.90
11112;DHT22;5609;49.466;8.468;2024-01-30T06:28:27;3.40;99.90
11112;DHT22;5609;49.466;8.468;2024-01-30T06:30:55;3.40;99.90
11112;DHT22;5609;49.466;8.468;2024-01-30T06:33:22;3.40;99.90
11112;DHT22;5609;49.466;8.468;2024-01-30T06:35:51;3.40;99.90
11112;DHT22;5609;49.466;8.468;2024-01-30T06:38:18;3.40;99.90
11112;DHT22;5609;49.466;8.468;2024-01-30T06:40:46;3.40;99.90
11112;DHT22;5609;49.466;8.468;2024-01-30T06:43:13;3.40;99.90
11112;DHT22;5609;49.466;8.468;2024-01-30T06:45:39;3.40;99.90
11112;DHT22;5609;49.466;8.468;2024-01-30T06:48:07;3.30;99.90
11112;DHT22;5609;49.466;8.468;2024-01-30T06:50:34;3.20;99.90
11112;DHT22;5609;49.466;8.468;2024-01-30T06:53:01;3.20;99.90
11112;DHT22;5609;49.466;8.468;2024-01-30T06:55:27;3.20;99.90
11112;DHT22;5609;49.466;8.468;2024-01-30T06:57:55;3.20;99.90
11112;DHT22;5609;49.466;8.468;2024-01-30T07:00:22;3.20;99.90
11112;DHT22;5609;49.466;8.468;2024-01-30T07:02:51;3.10;99.90
11112;DHT22;5609;49.466;8.468;2024-01-30T07:05:19;3.10;99.90
11112;DHT22;5609;49.466;8.468;2024-01-30T07:07:47;3.20;99.90
11112;DHT22;5609;49.466;8.468;2024-01-30T07:10:14;3.20;99.90
11112;DHT22;5609;49.466;8.468;2024-01-30T07:12:41;3.20;99.90
11112;DHT22;5609;49.466;8.468;2024-01-30T07:15:09;3.20;99.90
11112;DHT22;5609;49.466;8.468;2024-01-30T07:17:36;3.20;99.90
11112;DHT22;5609;49.466;8.468;2024-01-30T07:20:04;3.20;99.90
11112;DHT22;5609;49.466;8.468;2024-01-30T07:22:31;3.20;99.90
11112;DHT22;5609;49.466;8.468;2024-01-30T07:24:59;3.20;99.90
11112;DHT22;5609;49.466;8.468;2024-01-30T07:27:27;3.30;99.90
11112;DHT22;5609;49.466;8.468;2024-01-30T07:29:56;3.30;99.90
11112;DHT22;5609;49.466;8.468;2024-01-30T07:32:24;3.30;99.90
11112;DHT22;5609;49.466;8.468;2024-01-30T07:34:51;3.40;99.90
11112;DHT22;5609;49.466;8.468;2024-01-30T07:37:17;3.40;99.90
11112;DHT22;5609;49.466;8.468;2024-01-30T07:39:45;3.40;99.90
11112;DHT22;5609;49.466;8.468;2024-01-30T07:42:13;3.50;99.90
11112;DHT22;5609;49.466;8.468;2024-01-30T07:44:40;3.50;99.90
11112;DHT22;5609;49.466;8.468;2024-01-30T07:47:07;3.50;99.90
11112;DHT22;5609;49.466;8.468;2024-01-30T07:49:35;3.60;99.90
11112;DHT22;5609;49.466;8.468;2024-01-30T07:52:03;3.60;99.90
11112;DHT22;5609;49.466;8.468;2024-01-30T07:54:31;3.70;99.90
11112;DHT22;5609;49.466;8.468;2024-01-30T07:56:59;3.80;99.90
11112;DHT22;5609;49.466;8.468;2024-01-30T07:59:27;3.90;99.90
11112;DHT22;5609;49.466;8.468;2024-01-30T08:01:54;3.90;99.90
11112;DHT22;5609;49.466;8.468;2024-01-30T08:04:20;4.00;99.90
11112;DHT22;5609;49.466;8.468;2024-01-30T08:06:48;4.10;99.90
11112;DHT22;5609;49.466;8.468;2024-01-30T08:09:15;4.20;99.90
11112;DHT22;5609;49.466;8.468;2024-01-30T08:11:42;4.30;99.90
11112;DHT22;5609;49.466;8.468;2024-01-30T08:14:09;4.40;99.90
11112;DHT22;5609;49.466;8.468;2024-01-30T08:16:35;4.50;99.90
11112;DHT22;5609;49.466;8.468;2024-01-30T08:19:02;4.50;99.90
11112;DHT22;5609;49.466;8.468;2024-01-30T08:21:29;4.60;99.90
11112;DHT22;5609;49.466;8.468;2024-01-30T08:24:03;4.70;99.90
11112;DHT22;5609;49.466;8.468;2024-01-30T08:26:29;4.80;99.90
11112;DHT22;5609;49.466;8.468;2024-01-30T08:28:57;4.90;99.90
11112;DHT22;5609;49.466;8.468;2024-01-30T08:31:23;4.90;99.90
11112;DHT22;5609;49.466;8.468;2024-01-30T08:33:51;5.00;99.90
11112;DHT22;5609;49.466;8.468;2024-01-30T08:36:17;5.10;99.90
11112;DHT22;5609;49.466;8.468;2024-01-30T08:38:44;5.20;99.90
11112;DHT22;5609;49.466;8.468;2024-01-30T08:41:12;5.20;99.90
11112;DHT22;5609;49.466;8.468;2024-01-30T08:43:39;5.30;99.90
11112;DHT22;5609;49.466;8.468;2024-01-30T08:46:05;5.40;99.90
11112;DHT22;5609;49.466;8.468;2024-01-30T08:48:32;5.40;99.90
11112;DHT22;5609;49.466;8.468;2024-01-30T08:50:59;5.50;99.90
11112;DHT22;5609;49.466;8.468;2024-01-30T08:53:25;5.60;99.90
11112;DHT22;5609;49.466;8.468;2024-01-30T08:55:52;5.60;99.90
11112;DHT22;5609;49.466;8.468;2024-01-30T08:58:20;5.60;99.90
11112;DHT22;5609;49.466;8.468;2024-01-30T09:00:47;5.60;99.90
11112;DHT22;5609;49.466;8.468;2024-01-30T09:03:13;5.70;99.90
11112;DHT22;5609;49.466;8.468;2024-01-30T09:05:41;5.80;99.90
11112;DHT22;5609;49.466;8.468;2024-01-30T09:08:07;5.80;99.90
11112;DHT22;5609;49.466;8.468;2024-01-30T09:10:34;5.90;99.90
11112;DHT22;5609;49.466;8.468;2024-01-30T09:13:01;6.00;99.90
11112;DHT22;5609;49.466;8.468;2024-01-30T09:15:29;6.10;99.90
11112;DHT22;5609;49.466;8.468;2024-01-30T09:17:56;6.10;99.90
11112;DHT22;5609;49.466;8.468;2024-01-30T09:20:24;6.20;99.90
11112;DHT22;5609;49.466;8.468;2024-01-30T09:22:51;6.20;99.90
11112;DHT22;5609;49.466;8.468;2024-01-30T09:25:18;6.30;99.90
11112;DHT22;5609;49.466;8.468;2024-01-30T09:27:45;6.40;99.90
11112;DHT22;5609;49.466;8.468;2024-01-30T09:30:12;6.50;99.90
11112;DHT22;5609;49.466;8.468;2024-01-30T09:32:41;6.50;99.90
11112;DHT22;5609;49.466;8.468;2024-01-30T09:35:09;6.50;99.90
11112;DHT22;5609;49.466;8.468;2024-01-30T09:37:35;6.60;99.90
11112;DHT22;5609;49.466;8.468;2024-01-30T09:40:02;6.50;99.90
11112;DHT22;5609;49.466;8.468;2024-01-30T09:42:33;6.60;99.90
11112;DHT22;5609;49.466;8.468;2024-01-30T09:45:01;6.70;99.90
11112;DHT22;5609;49.466;8.468;2024-01-30T09:47:30;6.80;99.90
11112;DHT22;5609;49.466;8.468;2024-01-30T09:50:03;6.80;99.90
11112;DHT22;5609;49.466;8.468;2024-01-30T09:52:31;6.90;99.90
11112;DHT22;5609;49.466;8.468;2024-01-30T09:55:00;6.90;99.90
11112;DHT22;5609;49.466;8.468;2024-01-30T09:57:27;7.00;99.90
11112;DHT22;5609;49.466;8.468;2024-01-30T09:59:53;7.20;99.90
11112;DHT22;5609;49.466;8.468;2024-01-30T10:02:20;7.30;99.90
11112;DHT22;5609;49.466;8.468;2024-01-30T10:04:48;7.40;99.90
11112;DHT22;5609;49.466;8.468;2024-01-30T10:07:16;7.40;99.90
11112;DHT22;5609;49.466;8.468;2024-01-30T10:09:43;7.50;99.90
11112;DHT22;5609;49.466;8.468;2024-01-30T10:12:10;7.50;99.90
11112;DHT22;5609;49.466;8.468;2024-01-30T10:14:38;7.60;99.90
11112;DHT22;5609;49.466;8.468;2024-01-30T10:17:07;7.60;99.90
11112;DHT22;5609;49.466;8.468;2024-01-30T10:19:34;7.60;99.90
11112;DHT22;5609;49.466;8.468;2024-01-30T10:22:01;7.70;99.90
11112;DHT22;5609;49.466;8.468;2024-01-30T10:24:30;7.70;99.90
11112;DHT22;5609;49.466;8.468;2024-01-30T10:26:57;7.80;99.90
11112;DHT22;5609;49.466;8.468;2024-01-30T10:29:26;7.90;99.90
11112;DHT22;5609;49.466;8.468;2024-01-30T10:32:00;8.00;99.90
11112;DHT22;5609;49.466;8.468;2024-01-30T10:34:27;8.10;99.90
11112;DHT22;5609;49.466;8.468;2024-01-30T10:37:01;8.20;99.90
11112;DHT22;5609;49.466;8.468;2024-01-30T10:39:36;8.30;99.90
11112;DHT22;5609;49.466;8.468;2024-01-30T10:42:07;8.40;99.90
11112;DHT22;5609;49.466;8.468;2024-01-30T10:44:43;8.50;99.90
11112;DHT22;5609;49.466;8.468;2024-01-30T10:47:25;8.60;99.90
11112;DHT22;5609;49.466;8.468;2024-01-30T10:49:54;8.70;99.90
11112;DHT22;5609;49.466;8.468;2024-01-30T10:52:23;8.70;99.90
11112;DHT22;5609;49.466;8.468;2024-01-30T10:54:54;8.70;99.90
11112;DHT22;5609;49.466;8.468;2024-01-30T10:57:23;8.80;99.90
11112;DHT22;5609;49.466;8.468;2024-01-30T10:59:51;9.00;99.90
11112;DHT22;5609;49.466;8.468;2024-01-30T11:02:19;9.10;99.90
11112;DHT22;5609;49.466;8.468;2024-01-30T11:04:46;9.20;99.90
11112;DHT22;5609;49.466;8.468;2024-01-30T11:07:16;9.40;99.90
11112;DHT22;5609;49.466;8.468;2024-01-30T11:09:51;9.50;99.90
11112;DHT22;5609;49.466;8.468;2024-01-30T11:12:22;9.70;99.90
11112;DHT22;5609;49.466;8.468;2024-01-30T11:14:50;9.70;99.90
11112;DHT22;5609;49.466;8.468;2024-01-30T11:17:29;9.60;99.90
11112;DHT22;5609;49.466;8.468;2024-01-30T11:20:10;9.60;99.90
11112;DHT22;5609;49.466;8.468;2024-01-30T11:22:53;9.60;99.90
11112;DHT22;5609;49.466;8.468;2024-01-30T11:25:23;9.50;99.90
11112;DHT22;5609;49.466;8.468;2024-01-30T11:27:51;9.50;99.90
11112;DHT22;5609;49.466;8.468;2024-01-30T11:30:22;9.50;99.90
11112;DHT22;5609;49.466;8.468;2024-01-30T11:33:00;9.60;99.90
11112;DHT22;5609;49.466;8.468;2024-01-30T11:35:27;9.70;99.90
11112;DHT22;5609;49.466;8.468;2024-01-30T11:37:54;9.80;99.90
11112;DHT22;5609;49.466;8.468;2024-01-30T11:40:22;9.90;99.90
11112;DHT22;5609;49.466;8.468;2024-01-30T11:42:51;9.90;99.90
11112;DHT22;5609;49.466;8.468;2024-01-30T11:45:18;10.00;99.90
11112;DHT22;5609;49.466;8.468;2024-01-30T11:47:45;10.00;99.90
11112;DHT22;5609;49.466;8.468;2024-01-30T11:50:12;10.00;99.90
11112;DHT22;5609;49.466;8.468;2024-01-30T11:52:39;10.00;99.90
11112;DHT22;5609;49.466;8.468;2024-01-30T11:55:07;10.00;99.90
11112;DHT22;5609;49.466;8.468;2024-01-30T11:57:36;9.90;99.90
11112;DHT22;5609;49.466;8.468;2024-01-30T12:00:04;10.00;99.90
11112;DHT22;5609;49.466;8.468;2024-01-30T12:02:35;10.10;99.90
11112;DHT22;5609;49.466;8.468;2024-01-30T12:05:04;10.10;99.90
11112;DHT22;5609;49.466;8.468;2024-01-30T12:07:31;10.20;99.90
11112;DHT22;5609;49.466;8.468;2024-01-30T12:10:01;10.30;99.90
11112;DHT22;5609;49.466;8.468;2024-01-30T12:12:29;10.40;99.90
11112;DHT22;5609;49.466;8.468;2024-01-30T12:14:57;10.50;99.90
11112;DHT22;5609;49.466;8.468;2024-01-30T12:17:26;10.50;99.90
11112;DHT22;5609;49.466;8.468;2024-01-30T12:20:03;10.50;99.90
11112;DHT22;5609;49.466;8.468;2024-01-30T12:22:30;10.50;99.90
11112;DHT22;5609;49.466;8.468;2024-01-30T12:24:56;10.50;99.90
11112;DHT22;5609;49.466;8.468;2024-01-30T12:27:23;10.70;99.90
11112;DHT22;5609;49.466;8.468;2024-01-30T12:29:56;10.80;99.90
11112;DHT22;5609;49.466;8.468;2024-01-30T12:32:25;10.90;99.90
11112;DHT22;5609;49.466;8.468;2024-01-30T12:34:55;11.00;99.90
11112;DHT22;5609;49.466;8.468;2024-01-30T12:37:22;11.10;99.90
11112;DHT22;5609;49.466;8.468;2024-01-30T12:39:51;11.20;99.90
11112;DHT22;5609;49.466;8.468;2024-01-30T12:42:19;11.30;99.90
11112;DHT22;5609;49.466;8.468;2024-01-30T12:44:47;11.40;99.90
11112;DHT22;5609;49.466;8.468;2024-01-30T12:47:16;11.40;99.90
11112;DHT22;5609;49.466;8.468;2024-01-30T12:49:43;11.50;99.90
11112;DHT22;5609;49.466;8.468;2024-01-30T12:52:12;11.60;99.90
11112;DHT22;5609;49.466;8.468;2024-01-30T12:54:41;11.70;99.90
11112;DHT22;5609;49.466;8.468;2024-01-30T12:57:08;11.60;99.90
11112;DHT22;5609;49.466;8.468;2024-01-30T12:59:34;11.70;99.90
11112;DHT22;5609;49.466;8.468;2024-01-30T13:02:01;12.00;99.90
11112;DHT22;5609;49.466;8.468;2024-01-30T13:04:30;12.10;99.90
11112;DHT22;5609;49.466;8.468;2024-01-30T13:06:58;12.10;99.90
11112;DHT22;5609;49.466;8.468;2024-01-30T13:09:26;12.20;99.90
11112;DHT22;5609;49.466;8.468;2024-01-30T13:11:53;12.20;99.90
11112;DHT22;5609;49.466;8.468;2024-01-30T13:14:19;12.30;99.90
11112;DHT22;5609;49.466;8.468;2024-01-30T13:16:46;12.40;99.90
11112;DHT22;5609;49.466;8.468;2024-01-30T13:19:13;12.40;99.90
11112;DHT22;5609;49.466;8.468;2024-01-30T13:21:41;12.40;99.90
11112;DHT22;5609;49.466;8.468;2024-01-30T13:24:08;12.50;99.90
11112;DHT22;5609;49.466;8.468;2024-01-30T13:26:35;12.60;99.90
11112;DHT22;5609;49.466;8.468;2024-01-30T13:29:03;12.70;99.90
11112;DHT22;5609;49.466;8.468;2024-01-30T13:31:31;12.70;99.90
11112;DHT22;5609;49.466;8.468;2024-01-30T13:33:58;12.70;99.90
11112;DHT22;5609;49.466;8.468;2024-01-30T13:36:26;12.70;99.90
11112;DHT22;5609;49.466;8.468;2024-01-30T13:38:55;12.80;99.90
11112;DHT22;5609;49.466;8.468;2024-01-30T13:41:23;12.80;99.90
11112;DHT22;5609;49.466;8.468;2024-01-30T13:43:49;12.70;99.90
11112;DHT22;5609;49.466;8.468;2024-01-30T13:46:19;12.60;99.90
11112;DHT22;5609;49.466;8.468;2024-01-30T13:48:46;12.50;99.90
11112;DHT22;5609;49.466;8.468;2024-01-30T13:51:13;12.40;99.90
11112;DHT22;5609;49.466;8.468;2024-01-30T13:53:42;12.30;99.90
11112;DHT22;5609;49.466;8.468;2024-01-30T13:56:10;12.10;99.90
11112;DHT22;5609;49.466;8.468;2024-01-30T13:58:37;12.10;99.90
11112;DHT22;5609;49.466;8.468;2024-01-30T14:01:04;12.10;99.90
11112;DHT22;5609;49.466;8.468;2024-01-30T14:03:32;12.00;99.90
11112;DHT22;5609;49.466;8.468;2024-01-30T14:05:58;12.00;99.90
11112;DHT22;5609;49.466;8.468;2024-01-30T14:08:25;12.10;99.90
11112;DHT22;5609;49.466;8.468;2024-01-30T14:10:55;12.00;99.90
11112;DHT22;5609;49.466;8.468;2024-01-30T14:13:23;12.00;99.90
11112;DHT22;5609;49.466;8.468;2024-01-30T14:15:50;12.00;99.90
11112;DHT22;5609;49.466;8.468;2024-01-30T14:18:17;12.10;99.90
11112;DHT22;5609;49.466;8.468;2024-01-30T14:20:44;12.00;99.90
11112;DHT22;5609;49.466;8.468;2024-01-30T14:23:11;12.00;99.90
11112;DHT22;5609;49.466;8.468;2024-01-30T14:25:38;12.00;99.90
11112;DHT22;5609;49.466;8.468;2024-01-30T14:28:05;12.00;99.90
11112;DHT22;5609;49.466;8.468;2024-01-30T14:30:33;11.90;99.90
11112;DHT22;5609;49.466;8.468;2024-01-30T14:33:01;11.90;99.90
11112;DHT22;5609;49.466;8.468;2024-01-30T14:35:28;11.80;99.90
11112;DHT22;5609;49.466;8.468;2024-01-30T14:37:57;11.70;99.90
11112;DHT22;5609;49.466;8.468;2024-01-30T14:40:26;11.60;99.90
11112;DHT22;5609;49.466;8.468;2024-01-30T14:42:54;11.60;99.90
11112;DHT22;5609;49.466;8.468;2024-01-30T14:45:22;11.60;99.90
11112;DHT22;5609;49.466;8.468;2024-01-30T14:47:50;11.60;99.90
11112;DHT22;5609;49.466;8.468;2024-01-30T14:50:21;11.50;99.90
11112;DHT22;5609;49.466;8.468;2024-01-30T14:52:47;11.50;99.90
11112;DHT22;5609;49.466;8.468;2024-01-30T14:55:14;11.40;99.90
11112;DHT22;5609;49.466;8.468;2024-01-30T14:57:41;11.40;99.90
11112;DHT22;5609;49.466;8.468;2024-01-30T15:00:11;11.40;99.90
11112;DHT22;5609;49.466;8.468;2024-01-30T15:02:39;11.40;99.90
11112;DHT22;5609;49.466;8.468;2024-01-30T15:05:08;11.40;99.90
11112;DHT22;5609;49.466;8.468;2024-01-30T15:07:36;11.40;99.90
11112;DHT22;5609;49.466;8.468;2024-01-30T15:10:17;11.40;99.90
11112;DHT22;5609;49.466;8.468;2024-01-30T15:12:49;11.40;99.90
11112;DHT22;5609;49.466;8.468;2024-01-30T15:15:16;11.30;99.90
11112;DHT22;5609;49.466;8.468;2024-01-30T15:17:43;11.30;99.90
11112;DHT22;5609;49.466;8.468;2024-01-30T15:20:11;11.30;99.90
11112;DHT22;5609;49.466;8.468;2024-01-30T15:22:38;11.20;99.90
11112;DHT22;5609;49.466;8.468;2024-01-30T15:25:07;11.20;99.90
11112;DHT22;5609;49.466;8.468;2024-01-30T15:27:34;11.10;99.90
11112;DHT22;5609;49.466;8.468;2024-01-30T15:30:01;11.10;99.90
11112;DHT22;5609;49.466;8.468;2024-01-30T15:32:28;11.10;99.90
11112;DHT22;5609;49.466;8.468;2024-01-30T15:34:54;11.00;99.90
11112;DHT22;5609;49.466;8.468;2024-01-30T15:37:28;11.00;99.90
11112;DHT22;5609;49.466;8.468;2024-01-30T15:39:54;11.00;99.90
11112;DHT22;5609;49.466;8.468;2024-01-30T15:42:21;10.90;99.90
11112;DHT22;5609;49.466;8.468;2024-01-30T15:44:48;10.90;99.90
11112;DHT22;5609;49.466;8.468;2024-01-30T15:47:15;10.80;99.90
11112;DHT22;5609;49.466;8.468;2024-01-30T15:49:42;10.80;99.90
11112;DHT22;5609;49.466;8.468;2024-01-30T15:52:08;10.70;99.90
11112;DHT22;5609;49.466;8.468;2024-01-30T15:54:41;10.70;99.90
11112;DHT22;5609;49.466;8.468;2024-01-30T15:57:08;10.70;99.90
11112;DHT22;5609;49.466;8.468;2024-01-30T15:59:35;10.70;99.90